sensor_id;sensor_type;location;lat;lon;timestamp;P1;durP1;ratioP1;P2;durP2;ratioP2
27847;SDS011;15212;48.830;8.730;2022-12-29T00:01:09;2.02;;;1.15;;
27847;SDS011;15212;48.830;8.730;2022-12-29T00:03:37;1.92;;;0.90;;
27847;SDS011;15212;48.830;8.730;2022-12-29T00:06:06;4.35;;;1.17;;
27847;SDS011;15212;48.830;8.730;2022-12-29T00:08:34;2.12;;;1.20;;
27847;SDS011;15212;48.830;8.730;2022-12-29T00:11:06;2.92;;;1.10;;
27847;SDS011;15212;48.830;8.730;2022-12-29T00:13:38;1.60;;;1.20;;
27847;SDS011;15212;48.830;8.730;2022-12-29T00:16:24;5.83;;;1.30;;
27847;SDS011;15212;48.830;8.730;2022-12-29T00:18:54;3.12;;;1.20;;
27847;SDS011;15212;48.830;8.730;2022-12-29T00:21:23;3.92;;;1.27;;
27847;SDS011;15212;48.830;8.730;2022-12-29T00:24:18;1.32;;;1.00;;
27847;SDS011;15212;48.830;8.730;2022-12-29T00:29:53;2.05;;;1.15;;
27847;SDS011;15212;48.830;8.730;2022-12-29T00:32:42;3.50;;;1.60;;
27847;SDS011;15212;48.830;8.730;2022-12-29T00:35:29;4.17;;;1.90;;
27847;SDS011;15212;48.830;8.730;2022-12-29T00:38:05;5.33;;;1.60;;
27847;SDS011;15212;48.830;8.730;2022-12-29T00:40:53;1.65;;;0.95;;
27847;SDS011;15212;48.830;8.730;2022-12-29T00:43:39;4.12;;;0.85;;
27847;SDS011;15212;48.830;8.730;2022-12-29T00:46:26;1.67;;;0.90;;
27847;SDS011;15212;48.830;8.730;2022-12-29T00:48:54;1.27;;;0.75;;
27847;SDS011;15212;48.830;8.730;2022-12-29T00:54:08;4.87;;;1.00;;
27847;SDS011;15212;48.830;8.730;2022-12-29T00:56:36;3.33;;;1.25;;
27847;SDS011;15212;48.830;8.730;2022-12-29T00:59:06;2.02;;;1.00;;
27847;SDS011;15212;48.830;8.730;2022-12-29T01:01:37;2.10;;;1.02;;
27847;SDS011;15212;48.830;8.730;2022-12-29T01:04:06;3.35;;;0.80;;
27847;SDS011;15212;48.830;8.730;2022-12-29T01:06:35;5.58;;;0.70;;
27847;SDS011;15212;48.830;8.730;2022-12-29T01:09:06;2.40;;;1.37;;
27847;SDS011;15212;48.830;8.730;2022-12-29T01:11:54;3.92;;;0.88;;
27847;SDS011;15212;48.830;8.730;2022-12-29T01:14:23;3.55;;;0.90;;
27847;SDS011;15212;48.830;8.730;2022-12-29T01:16:52;1.72;;;0.78;;
27847;SDS011;15212;48.830;8.730;2022-12-29T01:19:22;0.70;;;0.68;;
27847;SDS011;15212;48.830;8.730;2022-12-29T01:21:51;1.67;;;0.75;;
27847;SDS011;15212;48.830;8.730;2022-12-29T01:24:19;2.22;;;0.80;;
27847;SDS011;15212;48.830;8.730;2022-12-29T01:26:48;1.62;;;0.88;;
27847;SDS011;15212;48.830;8.730;2022-12-29T01:29:17;4.10;;;0.82;;
27847;SDS011;15212;48.830;8.730;2022-12-29T01:31:45;1.17;;;0.82;;
27847;SDS011;15212;48.830;8.730;2022-12-29T01:34:15;4.62;;;0.95;;
27847;SDS011;15212;48.830;8.730;2022-12-29T01:36:44;3.10;;;0.90;;
27847;SDS011;15212;48.830;8.730;2022-12-29T01:39:12;1.55;;;0.80;;
27847;SDS011;15212;48.830;8.730;2022-12-29T01:41:41;2.70;;;0.80;;
27847;SDS011;15212;48.830;8.730;2022-12-29T01:47:15;1.05;;;0.80;;
27847;SDS011;15212;48.830;8.730;2022-12-29T01:49:47;2.02;;;0.70;;
27847;SDS011;15212;48.830;8.730;2022-12-29T01:52:17;1.10;;;0.75;;
27847;SDS011;15212;48.830;8.730;2022-12-29T01:54:47;1.30;;;0.80;;
27847;SDS011;15212;48.830;8.730;2022-12-29T01:57:19;2.42;;;1.10;;
27847;SDS011;15212;48.830;8.730;2022-12-29T01:59:56;2.67;;;0.75;;
27847;SDS011;15212;48.830;8.730;2022-12-29T02:02:24;4.28;;;1.00;;
27847;SDS011;15212;48.830;8.730;2022-12-29T02:04:53;2.42;;;0.70;;
27847;SDS011;15212;48.830;8.730;2022-12-29T02:07:22;1.75;;;0.82;;
27847;SDS011;15212;48.830;8.730;2022-12-29T02:09:53;3.58;;;0.90;;
27847;SDS011;15212;48.830;8.730;2022-12-29T02:12:23;2.85;;;0.85;;
27847;SDS011;15212;48.830;8.730;2022-12-29T02:14:53;2.75;;;1.00;;
27847;SDS011;15212;48.830;8.730;2022-12-29T02:20:11;3.75;;;0.95;;
27847;SDS011;15212;48.830;8.730;2022-12-29T02:23:11;1.85;;;0.70;;
27847;SDS011;15212;48.830;8.730;2022-12-29T02:29:05;3.52;;;0.85;;
27847;SDS011;15212;48.830;8.730;2022-12-29T02:31:59;1.20;;;0.62;;
27847;SDS011;15212;48.830;8.730;2022-12-29T02:34:57;2.75;;;0.95;;
27847;SDS011;15212;48.830;8.730;2022-12-29T02:37:55;3.17;;;1.40;;
27847;SDS011;15212;48.830;8.730;2022-12-29T02:40:39;3.87;;;0.95;;
27847;SDS011;15212;48.830;8.730;2022-12-29T02:43:26;2.52;;;0.78;;
27847;SDS011;15212;48.830;8.730;2022-12-29T02:46:51;4.33;;;1.85;;
27847;SDS011;15212;48.830;8.730;2022-12-29T02:51:59;1.98;;;0.78;;
27847;SDS011;15212;48.830;8.730;2022-12-29T02:54:35;1.82;;;0.90;;
27847;SDS011;15212;48.830;8.730;2022-12-29T02:57:11;3.50;;;0.80;;
27847;SDS011;15212;48.830;8.730;2022-12-29T02:59:52;2.55;;;0.95;;
27847;SDS011;15212;48.830;8.730;2022-12-29T03:10:58;1.67;;;0.78;;
27847;SDS011;15212;48.830;8.730;2022-12-29T03:13:44;2.65;;;1.00;;
27847;SDS011;15212;48.830;8.730;2022-12-29T03:16:47;3.22;;;0.80;;
27847;SDS011;15212;48.830;8.730;2022-12-29T03:19:26;4.95;;;1.20;;
27847;SDS011;15212;48.830;8.730;2022-12-29T03:22:10;4.05;;;1.07;;
27847;SDS011;15212;48.830;8.730;2022-12-29T03:27:42;2.27;;;0.65;;
27847;SDS011;15212;48.830;8.730;2022-12-29T03:30:26;4.97;;;1.40;;
27847;SDS011;15212;48.830;8.730;2022-12-29T03:32:58;2.22;;;1.00;;
27847;SDS011;15212;48.830;8.730;2022-12-29T03:35:33;3.25;;;1.02;;
27847;SDS011;15212;48.830;8.730;2022-12-29T03:43:10;1.00;;;0.62;;
27847;SDS011;15212;48.830;8.730;2022-12-29T03:45:40;1.90;;;1.02;;
27847;SDS011;15212;48.830;8.730;2022-12-29T03:48:08;3.72;;;0.72;;
27847;SDS011;15212;48.830;8.730;2022-12-29T03:50:37;1.70;;;0.98;;
27847;SDS011;15212;48.830;8.730;2022-12-29T03:53:05;0.90;;;0.60;;
27847;SDS011;15212;48.830;8.730;2022-12-29T03:55:33;2.00;;;0.80;;
27847;SDS011;15212;48.830;8.730;2022-12-29T03:58:02;1.35;;;0.75;;
27847;SDS011;15212;48.830;8.730;2022-12-29T04:00:30;1.40;;;0.88;;
27847;SDS011;15212;48.830;8.730;2022-12-29T04:02:59;0.90;;;0.60;;
27847;SDS011;15212;48.830;8.730;2022-12-29T04:05:27;1.45;;;0.62;;
27847;SDS011;15212;48.830;8.730;2022-12-29T04:07:56;1.70;;;0.70;;
27847;SDS011;15212;48.830;8.730;2022-12-29T04:10:25;2.10;;;0.80;;
27847;SDS011;15212;48.830;8.730;2022-12-29T04:12:54;2.30;;;0.90;;
27847;SDS011;15212;48.830;8.730;2022-12-29T04:15:22;3.60;;;0.72;;
27847;SDS011;15212;48.830;8.730;2022-12-29T04:17:52;1.37;;;0.68;;
27847;SDS011;15212;48.830;8.730;2022-12-29T04:20:20;1.37;;;0.90;;
27847;SDS011;15212;48.830;8.730;2022-12-29T04:23:07;1.65;;;0.82;;
27847;SDS011;15212;48.830;8.730;2022-12-29T04:25:35;3.42;;;0.90;;
27847;SDS011;15212;48.830;8.730;2022-12-29T04:28:03;2.15;;;1.12;;
27847;SDS011;15212;48.830;8.730;2022-12-29T04:30:33;1.77;;;0.82;;
27847;SDS011;15212;48.830;8.730;2022-12-29T04:33:02;1.30;;;1.00;;
27847;SDS011;15212;48.830;8.730;2022-12-29T04:35:30;2.05;;;0.80;;
27847;SDS011;15212;48.830;8.730;2022-12-29T04:37:58;1.67;;;0.85;;
27847;SDS011;15212;48.830;8.730;2022-12-29T04:40:27;1.67;;;0.78;;
27847;SDS011;15212;48.830;8.730;2022-12-29T04:42:55;2.58;;;0.85;;
27847;SDS011;15212;48.830;8.730;2022-12-29T04:45:24;1.82;;;0.88;;
27847;SDS011;15212;48.830;8.730;2022-12-29T04:47:52;3.77;;;1.20;;
27847;SDS011;15212;48.830;8.730;2022-12-29T04:50:21;3.22;;;0.85;;
27847;SDS011;15212;48.830;8.730;2022-12-29T04:52:49;1.15;;;0.80;;
27847;SDS011;15212;48.830;8.730;2022-12-29T04:55:18;4.15;;;1.37;;
27847;SDS011;15212;48.830;8.730;2022-12-29T04:57:46;2.25;;;0.98;;
27847;SDS011;15212;48.830;8.730;2022-12-29T05:00:14;1.92;;;0.90;;
27847;SDS011;15212;48.830;8.730;2022-12-29T05:02:43;2.60;;;1.05;;
27847;SDS011;15212;48.830;8.730;2022-12-29T05:05:12;2.65;;;1.10;;
27847;SDS011;15212;48.830;8.730;2022-12-29T05:07:41;4.83;;;1.00;;
27847;SDS011;15212;48.830;8.730;2022-12-29T05:10:09;1.80;;;0.93;;
27847;SDS011;15212;48.830;8.730;2022-12-29T05:12:38;2.35;;;0.80;;
27847;SDS011;15212;48.830;8.730;2022-12-29T05:15:07;2.20;;;0.90;;
27847;SDS011;15212;48.830;8.730;2022-12-29T05:17:37;1.65;;;0.90;;
27847;SDS011;15212;48.830;8.730;2022-12-29T05:20:06;3.35;;;1.05;;
27847;SDS011;15212;48.830;8.730;2022-12-29T05:22:35;2.50;;;0.80;;
27847;SDS011;15212;48.830;8.730;2022-12-29T05:25:04;1.75;;;1.00;;
27847;SDS011;15212;48.830;8.730;2022-12-29T05:27:32;3.08;;;0.80;;
27847;SDS011;15212;48.830;8.730;2022-12-29T05:30:01;2.08;;;1.05;;
27847;SDS011;15212;48.830;8.730;2022-12-29T05:32:29;1.80;;;0.90;;
27847;SDS011;15212;48.830;8.730;2022-12-29T05:34:58;3.02;;;0.70;;
27847;SDS011;15212;48.830;8.730;2022-12-29T05:37:26;2.10;;;0.90;;
27847;SDS011;15212;48.830;8.730;2022-12-29T05:39:55;1.25;;;0.90;;
27847;SDS011;15212;48.830;8.730;2022-12-29T05:42:25;1.57;;;0.90;;
27847;SDS011;15212;48.830;8.730;2022-12-29T05:44:53;1.90;;;1.00;;
27847;SDS011;15212;48.830;8.730;2022-12-29T05:47:21;0.80;;;0.80;;
27847;SDS011;15212;48.830;8.730;2022-12-29T05:49:50;2.10;;;0.90;;
27847;SDS011;15212;48.830;8.730;2022-12-29T05:52:18;1.55;;;0.72;;
27847;SDS011;15212;48.830;8.730;2022-12-29T05:54:47;2.12;;;1.05;;
27847;SDS011;15212;48.830;8.730;2022-12-29T05:57:15;5.10;;;1.30;;
27847;SDS011;15212;48.830;8.730;2022-12-29T05:59:44;2.42;;;1.00;;
27847;SDS011;15212;48.830;8.730;2022-12-29T06:02:12;1.55;;;0.78;;
27847;SDS011;15212;48.830;8.730;2022-12-29T06:04:40;6.47;;;1.22;;
27847;SDS011;15212;48.830;8.730;2022-12-29T06:07:09;2.25;;;1.27;;
27847;SDS011;15212;48.830;8.730;2022-12-29T06:09:37;2.15;;;1.02;;
27847;SDS011;15212;48.830;8.730;2022-12-29T06:12:05;2.70;;;0.93;;
27847;SDS011;15212;48.830;8.730;2022-12-29T06:14:34;3.40;;;1.15;;
27847;SDS011;15212;48.830;8.730;2022-12-29T06:17:02;2.80;;;0.98;;
27847;SDS011;15212;48.830;8.730;2022-12-29T06:19:31;2.12;;;1.20;;
27847;SDS011;15212;48.830;8.730;2022-12-29T06:21:59;1.85;;;1.00;;
27847;SDS011;15212;48.830;8.730;2022-12-29T06:24:28;1.60;;;1.00;;
27847;SDS011;15212;48.830;8.730;2022-12-29T06:26:56;2.42;;;0.90;;
27847;SDS011;15212;48.830;8.730;2022-12-29T06:29:24;3.33;;;0.95;;
27847;SDS011;15212;48.830;8.730;2022-12-29T06:31:53;5.03;;;1.10;;
27847;SDS011;15212;48.830;8.730;2022-12-29T06:34:24;1.90;;;1.00;;
27847;SDS011;15212;48.830;8.730;2022-12-29T06:36:52;2.20;;;0.80;;
27847;SDS011;15212;48.830;8.730;2022-12-29T06:39:21;1.98;;;1.02;;
27847;SDS011;15212;48.830;8.730;2022-12-29T06:41:51;2.55;;;0.93;;
27847;SDS011;15212;48.830;8.730;2022-12-29T06:44:20;1.98;;;0.72;;
27847;SDS011;15212;48.830;8.730;2022-12-29T06:46:49;2.00;;;1.00;;
27847;SDS011;15212;48.830;8.730;2022-12-29T06:49:17;2.55;;;1.10;;
27847;SDS011;15212;48.830;8.730;2022-12-29T06:51:46;4.10;;;1.07;;
27847;SDS011;15212;48.830;8.730;2022-12-29T06:54:14;2.15;;;1.12;;
27847;SDS011;15212;48.830;8.730;2022-12-29T06:56:43;2.80;;;0.90;;
27847;SDS011;15212;48.830;8.730;2022-12-29T06:59:12;1.40;;;1.10;;
27847;SDS011;15212;48.830;8.730;2022-12-29T07:01:40;3.98;;;1.00;;
27847;SDS011;15212;48.830;8.730;2022-12-29T07:04:08;2.37;;;1.00;;
27847;SDS011;15212;48.830;8.730;2022-12-29T07:06:37;1.02;;;0.80;;
27847;SDS011;15212;48.830;8.730;2022-12-29T07:09:07;8.35;;;1.35;;
27847;SDS011;15212;48.830;8.730;2022-12-29T07:11:35;2.35;;;1.02;;
27847;SDS011;15212;48.830;8.730;2022-12-29T07:14:04;2.12;;;1.20;;
27847;SDS011;15212;48.830;8.730;2022-12-29T07:16:32;1.90;;;1.00;;
27847;SDS011;15212;48.830;8.730;2022-12-29T07:19:01;6.28;;;1.12;;
27847;SDS011;15212;48.830;8.730;2022-12-29T07:21:29;1.77;;;1.20;;
27847;SDS011;15212;48.830;8.730;2022-12-29T07:23:58;2.62;;;1.20;;
27847;SDS011;15212;48.830;8.730;2022-12-29T07:26:27;1.10;;;1.00;;
27847;SDS011;15212;48.830;8.730;2022-12-29T07:28:55;1.72;;;1.10;;
27847;SDS011;15212;48.830;8.730;2022-12-29T07:31:23;2.35;;;1.25;;
27847;SDS011;15212;48.830;8.730;2022-12-29T07:33:52;2.47;;;1.20;;
27847;SDS011;15212;48.830;8.730;2022-12-29T07:36:21;3.60;;;1.10;;
27847;SDS011;15212;48.830;8.730;2022-12-29T07:38:50;4.15;;;1.52;;
27847;SDS011;15212;48.830;8.730;2022-12-29T07:41:18;7.95;;;1.50;;
27847;SDS011;15212;48.830;8.730;2022-12-29T07:43:47;2.98;;;1.40;;
27847;SDS011;15212;48.830;8.730;2022-12-29T07:46:15;2.37;;;1.30;;
27847;SDS011;15212;48.830;8.730;2022-12-29T07:48:43;2.83;;;1.17;;
27847;SDS011;15212;48.830;8.730;2022-12-29T07:51:12;2.17;;;1.20;;
27847;SDS011;15212;48.830;8.730;2022-12-29T07:53:40;4.95;;;1.10;;
27847;SDS011;15212;48.830;8.730;2022-12-29T07:56:09;1.52;;;1.12;;
27847;SDS011;15212;48.830;8.730;2022-12-29T07:58:37;4.65;;;1.67;;
27847;SDS011;15212;48.830;8.730;2022-12-29T08:01:05;2.25;;;1.17;;
27847;SDS011;15212;48.830;8.730;2022-12-29T08:03:34;2.22;;;1.05;;
27847;SDS011;15212;48.830;8.730;2022-12-29T08:06:02;2.85;;;1.27;;
27847;SDS011;15212;48.830;8.730;2022-12-29T08:08:30;5.95;;;1.12;;
27847;SDS011;15212;48.830;8.730;2022-12-29T08:10:59;2.55;;;1.40;;
27847;SDS011;15212;48.830;8.730;2022-12-29T08:13:27;1.72;;;1.00;;
27847;SDS011;15212;48.830;8.730;2022-12-29T08:15:57;1.92;;;0.93;;
27847;SDS011;15212;48.830;8.730;2022-12-29T08:18:25;3.83;;;1.20;;
27847;SDS011;15212;48.830;8.730;2022-12-29T08:20:54;1.82;;;1.17;;
27847;SDS011;15212;48.830;8.730;2022-12-29T08:23:22;4.08;;;1.27;;
27847;SDS011;15212;48.830;8.730;2022-12-29T08:26:03;5.50;;;1.12;;
27847;SDS011;15212;48.830;8.730;2022-12-29T08:28:28;4.45;;;1.20;;
27847;SDS011;15212;48.830;8.730;2022-12-29T08:30:57;6.53;;;1.02;;
27847;SDS011;15212;48.830;8.730;2022-12-29T08:33:27;2.95;;;0.90;;
27847;SDS011;15212;48.830;8.730;2022-12-29T08:36:02;2.02;;;1.00;;
27847;SDS011;15212;48.830;8.730;2022-12-29T08:38:33;1.75;;;0.90;;
27847;SDS011;15212;48.830;8.730;2022-12-29T08:41:01;3.58;;;1.10;;
27847;SDS011;15212;48.830;8.730;2022-12-29T08:43:30;1.52;;;1.05;;
27847;SDS011;15212;48.830;8.730;2022-12-29T08:45:59;3.47;;;1.10;;
27847;SDS011;15212;48.830;8.730;2022-12-29T08:48:27;2.05;;;1.20;;
27847;SDS011;15212;48.830;8.730;2022-12-29T08:50:56;1.40;;;0.82;;
27847;SDS011;15212;48.830;8.730;2022-12-29T08:53:24;1.98;;;1.20;;
27847;SDS011;15212;48.830;8.730;2022-12-29T08:55:56;3.70;;;1.20;;
27847;SDS011;15212;48.830;8.730;2022-12-29T08:58:26;2.12;;;1.17;;
27847;SDS011;15212;48.830;8.730;2022-12-29T09:00:55;1.60;;;0.95;;
27847;SDS011;15212;48.830;8.730;2022-12-29T09:03:25;1.57;;;0.93;;
27847;SDS011;15212;48.830;8.730;2022-12-29T09:05:54;2.85;;;0.82;;
27847;SDS011;15212;48.830;8.730;2022-12-29T09:08:22;1.20;;;0.88;;
27847;SDS011;15212;48.830;8.730;2022-12-29T09:10:51;3.00;;;1.12;;
27847;SDS011;15212;48.830;8.730;2022-12-29T09:13:20;1.65;;;0.88;;
27847;SDS011;15212;48.830;8.730;2022-12-29T09:15:48;2.52;;;1.30;;
27847;SDS011;15212;48.830;8.730;2022-12-29T09:18:20;0.85;;;0.80;;
27847;SDS011;15212;48.830;8.730;2022-12-29T09:20:48;2.65;;;0.88;;
27847;SDS011;15212;48.830;8.730;2022-12-29T09:23:18;1.67;;;0.88;;
27847;SDS011;15212;48.830;8.730;2022-12-29T09:25:47;3.58;;;0.88;;
27847;SDS011;15212;48.830;8.730;2022-12-29T09:28:15;1.47;;;0.62;;
27847;SDS011;15212;48.830;8.730;2022-12-29T09:30:43;2.08;;;1.00;;
27847;SDS011;15212;48.830;8.730;2022-12-29T09:33:12;2.45;;;1.10;;
27847;SDS011;15212;48.830;8.730;2022-12-29T09:35:41;3.10;;;0.90;;
27847;SDS011;15212;48.830;8.730;2022-12-29T09:38:11;5.47;;;1.12;;
27847;SDS011;15212;48.830;8.730;2022-12-29T09:40:41;2.17;;;1.27;;
27847;SDS011;15212;48.830;8.730;2022-12-29T09:46:26;1.75;;;1.00;;
27847;SDS011;15212;48.830;8.730;2022-12-29T09:49:19;1.50;;;0.70;;
27847;SDS011;15212;48.830;8.730;2022-12-29T09:52:05;1.22;;;0.72;;
27847;SDS011;15212;48.830;8.730;2022-12-29T09:54:39;3.30;;;1.05;;
27847;SDS011;15212;48.830;8.730;2022-12-29T09:57:16;2.52;;;1.10;;
27847;SDS011;15212;48.830;8.730;2022-12-29T09:59:49;3.33;;;1.40;;
27847;SDS011;15212;48.830;8.730;2022-12-29T10:02:29;0.80;;;0.62;;
27847;SDS011;15212;48.830;8.730;2022-12-29T10:05:13;1.82;;;1.00;;
27847;SDS011;15212;48.830;8.730;2022-12-29T10:08:15;1.67;;;1.07;;
27847;SDS011;15212;48.830;8.730;2022-12-29T10:10:56;3.50;;;1.12;;
27847;SDS011;15212;48.830;8.730;2022-12-29T10:16:43;4.12;;;1.12;;
27847;SDS011;15212;48.830;8.730;2022-12-29T10:22:12;2.42;;;1.20;;
27847;SDS011;15212;48.830;8.730;2022-12-29T10:25:25;1.67;;;0.88;;
27847;SDS011;15212;48.830;8.730;2022-12-29T10:27:55;2.35;;;0.80;;
27847;SDS011;15212;48.830;8.730;2022-12-29T10:30:27;1.10;;;0.72;;
27847;SDS011;15212;48.830;8.730;2022-12-29T10:32:56;1.10;;;0.70;;
27847;SDS011;15212;48.830;8.730;2022-12-29T10:35:35;2.35;;;0.90;;
27847;SDS011;15212;48.830;8.730;2022-12-29T10:38:17;1.35;;;0.90;;
27847;SDS011;15212;48.830;8.730;2022-12-29T10:41:11;4.20;;;0.88;;
27847;SDS011;15212;48.830;8.730;2022-12-29T10:43:45;2.40;;;0.80;;
27847;SDS011;15212;48.830;8.730;2022-12-29T10:46:27;1.70;;;1.22;;
27847;SDS011;15212;48.830;8.730;2022-12-29T10:48:57;2.55;;;1.37;;
27847;SDS011;15212;48.830;8.730;2022-12-29T10:51:32;1.20;;;0.93;;
27847;SDS011;15212;48.830;8.730;2022-12-29T10:54:08;1.07;;;0.70;;
27847;SDS011;15212;48.830;8.730;2022-12-29T10:56:54;2.92;;;0.90;;
27847;SDS011;15212;48.830;8.730;2022-12-29T10:59:27;1.15;;;0.70;;
27847;SDS011;15212;48.830;8.730;2022-12-29T11:07:54;2.30;;;0.90;;
27847;SDS011;15212;48.830;8.730;2022-12-29T11:10:39;2.62;;;1.15;;
27847;SDS011;15212;48.830;8.730;2022-12-29T11:13:24;2.60;;;0.80;;
27847;SDS011;15212;48.830;8.730;2022-12-29T11:15:49;1.87;;;0.90;;
27847;SDS011;15212;48.830;8.730;2022-12-29T11:21:03;2.67;;;0.95;;
27847;SDS011;15212;48.830;8.730;2022-12-29T11:23:39;2.20;;;0.75;;
27847;SDS011;15212;48.830;8.730;2022-12-29T11:26:25;2.10;;;0.90;;
27847;SDS011;15212;48.830;8.730;2022-12-29T11:31:47;2.02;;;0.68;;
27847;SDS011;15212;48.830;8.730;2022-12-29T11:34:31;1.60;;;0.75;;
27847;SDS011;15212;48.830;8.730;2022-12-29T11:37:03;1.12;;;0.75;;
27847;SDS011;15212;48.830;8.730;2022-12-29T11:45:06;2.33;;;0.55;;
27847;SDS011;15212;48.830;8.730;2022-12-29T11:47:41;0.95;;;0.60;;
27847;SDS011;15212;48.830;8.730;2022-12-29T11:50:18;1.60;;;0.68;;
27847;SDS011;15212;48.830;8.730;2022-12-29T11:52:50;1.22;;;0.70;;
27847;SDS011;15212;48.830;8.730;2022-12-29T11:55:28;0.70;;;0.40;;
27847;SDS011;15212;48.830;8.730;2022-12-29T11:57:58;2.50;;;0.70;;
27847;SDS011;15212;48.830;8.730;2022-12-29T12:00:31;1.42;;;0.53;;
27847;SDS011;15212;48.830;8.730;2022-12-29T12:05:37;1.35;;;0.53;;
27847;SDS011;15212;48.830;8.730;2022-12-29T12:08:09;2.22;;;0.80;;
27847;SDS011;15212;48.830;8.730;2022-12-29T12:11:04;3.42;;;0.80;;
27847;SDS011;15212;48.830;8.730;2022-12-29T12:14:03;1.90;;;0.85;;
27847;SDS011;15212;48.830;8.730;2022-12-29T12:16:52;2.25;;;0.70;;
27847;SDS011;15212;48.830;8.730;2022-12-29T12:19:34;3.58;;;0.90;;
27847;SDS011;15212;48.830;8.730;2022-12-29T12:22:51;1.30;;;0.70;;
27847;SDS011;15212;48.830;8.730;2022-12-29T12:25:17;2.33;;;0.80;;
27847;SDS011;15212;48.830;8.730;2022-12-29T12:30:28;1.07;;;0.80;;
27847;SDS011;15212;48.830;8.730;2022-12-29T12:33:11;2.25;;;0.90;;
27847;SDS011;15212;48.830;8.730;2022-12-29T12:39:11;2.52;;;1.10;;
27847;SDS011;15212;48.830;8.730;2022-12-29T12:41:49;1.82;;;0.95;;
27847;SDS011;15212;48.830;8.730;2022-12-29T12:44:27;1.30;;;0.70;;
27847;SDS011;15212;48.830;8.730;2022-12-29T12:53:12;1.17;;;0.80;;
27847;SDS011;15212;48.830;8.730;2022-12-29T13:02:28;3.15;;;0.72;;
27847;SDS011;15212;48.830;8.730;2022-12-29T13:08:25;0.85;;;0.70;;
27847;SDS011;15212;48.830;8.730;2022-12-29T13:17:08;1.30;;;0.65;;
27847;SDS011;15212;48.830;8.730;2022-12-29T13:20:03;2.15;;;0.90;;
27847;SDS011;15212;48.830;8.730;2022-12-29T13:22:56;3.70;;;0.80;;
27847;SDS011;15212;48.830;8.730;2022-12-29T13:25:45;4.30;;;1.22;;
27847;SDS011;15212;48.830;8.730;2022-12-29T13:28:31;1.22;;;0.70;;
27847;SDS011;15212;48.830;8.730;2022-12-29T13:34:17;1.67;;;0.72;;
27847;SDS011;15212;48.830;8.730;2022-12-29T13:37:12;0.62;;;0.50;;
27847;SDS011;15212;48.830;8.730;2022-12-29T13:39:57;1.02;;;0.60;;
27847;SDS011;15212;48.830;8.730;2022-12-29T13:42:32;2.55;;;0.70;;
27847;SDS011;15212;48.830;8.730;2022-12-29T13:45:06;1.40;;;0.62;;
27847;SDS011;15212;48.830;8.730;2022-12-29T13:47:46;1.10;;;0.80;;
27847;SDS011;15212;48.830;8.730;2022-12-29T13:50:18;2.60;;;0.60;;
27847;SDS011;15212;48.830;8.730;2022-12-29T13:55:52;1.30;;;0.80;;
27847;SDS011;15212;48.830;8.730;2022-12-29T13:58:27;1.05;;;0.70;;
27847;SDS011;15212;48.830;8.730;2022-12-29T14:01:15;2.65;;;0.80;;
27847;SDS011;15212;48.830;8.730;2022-12-29T14:04:09;3.15;;;0.80;;
27847;SDS011;15212;48.830;8.730;2022-12-29T14:06:40;3.67;;;0.60;;
27847;SDS011;15212;48.830;8.730;2022-12-29T14:09:40;1.80;;;0.85;;
27847;SDS011;15212;48.830;8.730;2022-12-29T14:12:58;1.25;;;0.80;;
27847;SDS011;15212;48.830;8.730;2022-12-29T14:17:42;1.50;;;0.80;;
27847;SDS011;15212;48.830;8.730;2022-12-29T14:20:18;4.47;;;0.75;;
27847;SDS011;15212;48.830;8.730;2022-12-29T14:22:57;2.98;;;0.88;;
27847;SDS011;15212;48.830;8.730;2022-12-29T14:25:58;1.62;;;0.70;;
27847;SDS011;15212;48.830;8.730;2022-12-29T14:28:40;1.10;;;0.75;;
27847;SDS011;15212;48.830;8.730;2022-12-29T14:36:43;1.30;;;0.88;;
27847;SDS011;15212;48.830;8.730;2022-12-29T14:42:15;2.65;;;0.80;;
27847;SDS011;15212;48.830;8.730;2022-12-29T14:47:31;3.85;;;1.05;;
27847;SDS011;15212;48.830;8.730;2022-12-29T14:50:17;1.35;;;0.70;;
27847;SDS011;15212;48.830;8.730;2022-12-29T14:52:50;2.20;;;0.72;;
27847;SDS011;15212;48.830;8.730;2022-12-29T14:58:20;1.22;;;0.60;;
27847;SDS011;15212;48.830;8.730;2022-12-29T15:00:53;1.30;;;0.80;;
27847;SDS011;15212;48.830;8.730;2022-12-29T15:03:32;1.27;;;0.78;;
27847;SDS011;15212;48.830;8.730;2022-12-29T15:06:08;4.08;;;1.40;;
27847;SDS011;15212;48.830;8.730;2022-12-29T15:09:00;5.53;;;2.10;;
27847;SDS011;15212;48.830;8.730;2022-12-29T15:14:29;0.70;;;0.57;;
27847;SDS011;15212;48.830;8.730;2022-12-29T15:17:08;0.30;;;0.30;;
27847;SDS011;15212;48.830;8.730;2022-12-29T15:19:50;1.55;;;0.57;;
27847;SDS011;15212;48.830;8.730;2022-12-29T15:22:19;0.70;;;0.53;;
27847;SDS011;15212;48.830;8.730;2022-12-29T15:24:54;0.82;;;0.50;;
27847;SDS011;15212;48.830;8.730;2022-12-29T15:27:21;0.30;;;0.30;;
27847;SDS011;15212;48.830;8.730;2022-12-29T15:30:01;1.40;;;0.40;;
27847;SDS011;15212;48.830;8.730;2022-12-29T15:32:42;1.55;;;0.40;;
27847;SDS011;15212;48.830;8.730;2022-12-29T15:35:31;2.22;;;0.60;;
27847;SDS011;15212;48.830;8.730;2022-12-29T15:37:53;0.80;;;0.50;;
27847;SDS011;15212;48.830;8.730;2022-12-29T15:40:32;0.98;;;0.50;;
27847;SDS011;15212;48.830;8.730;2022-12-29T15:43:05;0.57;;;0.40;;
27847;SDS011;15212;48.830;8.730;2022-12-29T15:45:43;0.40;;;0.40;;
27847;SDS011;15212;48.830;8.730;2022-12-29T15:48:17;4.37;;;0.45;;
27847;SDS011;15212;48.830;8.730;2022-12-29T15:50:49;0.37;;;0.37;;
27847;SDS011;15212;48.830;8.730;2022-12-29T15:53:27;0.70;;;0.40;;
27847;SDS011;15212;48.830;8.730;2022-12-29T15:56:01;6.05;;;0.50;;
27847;SDS011;15212;48.830;8.730;2022-12-29T15:58:46;0.40;;;0.40;;
27847;SDS011;15212;48.830;8.730;2022-12-29T16:04:01;1.25;;;0.28;;
27847;SDS011;15212;48.830;8.730;2022-12-29T16:06:38;0.35;;;0.28;;
27847;SDS011;15212;48.830;8.730;2022-12-29T16:09:15;0.35;;;0.33;;
27847;SDS011;15212;48.830;8.730;2022-12-29T16:11:50;1.05;;;0.33;;
27847;SDS011;15212;48.830;8.730;2022-12-29T16:14:21;1.05;;;0.40;;
27847;SDS011;15212;48.830;8.730;2022-12-29T16:17:15;1.75;;;0.53;;
27847;SDS011;15212;48.830;8.730;2022-12-29T16:19:50;3.75;;;0.75;;
27847;SDS011;15212;48.830;8.730;2022-12-29T16:22:32;1.95;;;0.50;;
27847;SDS011;15212;48.830;8.730;2022-12-29T16:25:10;1.37;;;0.37;;
27847;SDS011;15212;48.830;8.730;2022-12-29T16:27:51;0.33;;;0.30;;
27847;SDS011;15212;48.830;8.730;2022-12-29T16:30:27;1.65;;;0.50;;
27847;SDS011;15212;48.830;8.730;2022-12-29T16:33:00;0.37;;;0.30;;
27847;SDS011;15212;48.830;8.730;2022-12-29T16:36:33;1.17;;;0.57;;
27847;SDS011;15212;48.830;8.730;2022-12-29T16:38:15;1.10;;;0.50;;
27847;SDS011;15212;48.830;8.730;2022-12-29T16:40:54;1.10;;;0.47;;
27847;SDS011;15212;48.830;8.730;2022-12-29T16:43:31;1.65;;;0.40;;
27847;SDS011;15212;48.830;8.730;2022-12-29T16:46:11;1.62;;;0.30;;
27847;SDS011;15212;48.830;8.730;2022-12-29T16:48:54;0.60;;;0.40;;
27847;SDS011;15212;48.830;8.730;2022-12-29T16:51:33;0.50;;;0.40;;
27847;SDS011;15212;48.830;8.730;2022-12-29T16:54:01;0.55;;;0.40;;
27847;SDS011;15212;48.830;8.730;2022-12-29T16:56:31;0.30;;;0.30;;
27847;SDS011;15212;48.830;8.730;2022-12-29T16:59:08;1.60;;;0.40;;
27847;SDS011;15212;48.830;8.730;2022-12-29T17:01:56;2.17;;;0.50;;
27847;SDS011;15212;48.830;8.730;2022-12-29T17:04:29;1.98;;;0.80;;
27847;SDS011;15212;48.830;8.730;2022-12-29T17:06:58;0.42;;;0.40;;
27847;SDS011;15212;48.830;8.730;2022-12-29T17:09:27;0.40;;;0.40;;
27847;SDS011;15212;48.830;8.730;2022-12-29T17:11:57;0.55;;;0.40;;
27847;SDS011;15212;48.830;8.730;2022-12-29T17:14:39;4.70;;;0.40;;
27847;SDS011;15212;48.830;8.730;2022-12-29T17:17:32;1.90;;;0.53;;
27847;SDS011;15212;48.830;8.730;2022-12-29T17:20:16;3.80;;;0.62;;
27847;SDS011;15212;48.830;8.730;2022-12-29T17:22:47;0.60;;;0.30;;
27847;SDS011;15212;48.830;8.730;2022-12-29T17:25:20;0.80;;;0.50;;
27847;SDS011;15212;48.830;8.730;2022-12-29T17:27:55;0.40;;;0.40;;
27847;SDS011;15212;48.830;8.730;2022-12-29T17:30:29;1.92;;;0.40;;